createdAt,value
2023-03-06T00:02:23.099Z,3.17
2023-03-06T00:04:49.768Z,4.07
2023-03-06T00:07:16.570Z,6.95
2023-03-06T00:09:43.427Z,5.65
2023-03-06T00:12:10.268Z,6.18
2023-03-06T00:14:36.972Z,5.00
2023-03-06T00:17:04.191Z,5.22
2023-03-06T00:19:31.145Z,5.97
2023-03-06T00:21:58.124Z,4.00
2023-03-06T00:24:24.861Z,6.60
2023-03-06T00:26:51.564Z,7.13
2023-03-06T00:29:18.251Z,4.22
2023-03-06T00:31:47.976Z,9.70
2023-03-06T00:34:15.160Z,5.25
2023-03-06T00:36:42.145Z,4.93
2023-03-06T00:39:09.726Z,3.63
2023-03-06T00:41:36.535Z,5.15
2023-03-06T00:44:03.295Z,5.68
2023-03-06T00:46:30.253Z,3.47
2023-03-06T00:48:57.000Z,3.47
2023-03-06T00:51:23.714Z,3.70
2023-03-06T00:53:50.465Z,4.05
2023-03-06T00:56:19.933Z,2.78
2023-03-06T00:58:47.885Z,5.50
2023-03-06T01:01:14.864Z,3.03
2023-03-06T01:03:41.675Z,5.03
2023-03-06T01:06:08.423Z,3.70
2023-03-06T01:08:35.432Z,6.70
2023-03-06T01:11:02.128Z,2.63
2023-03-06T01:13:28.939Z,3.33
2023-03-06T01:15:55.591Z,3.38
2023-03-06T01:18:22.455Z,2.67
2023-03-06T01:20:49.174Z,3.25
2023-03-06T01:23:15.897Z,3.35
2023-03-06T01:25:42.594Z,5.82
2023-03-06T01:28:09.299Z,5.70
2023-03-06T01:30:36.058Z,3.15
2023-03-06T01:33:02.943Z,6.00
2023-03-06T01:35:29.785Z,6.63
2023-03-06T01:37:56.538Z,3.85
2023-03-06T01:40:23.248Z,6.45
2023-03-06T01:42:51.030Z,6.00
2023-03-06T01:45:17.704Z,5.32
2023-03-06T01:47:45.403Z,4.50
2023-03-06T01:50:12.739Z,6.15
2023-03-06T01:52:56.741Z,7.00
2023-03-06T01:55:26.979Z,20.67
2023-03-06T01:57:57.859Z,43.75
2023-03-06T02:00:26.977Z,11.18
2023-03-06T02:02:56.081Z,8.02
2023-03-06T02:05:23.211Z,7.50
2023-03-06T02:07:50.755Z,8.40
2023-03-06T02:10:18.755Z,6.05
2023-03-06T02:12:46.079Z,6.43
2023-03-06T02:15:14.399Z,8.10
2023-03-06T02:17:43.672Z,10.73
2023-03-06T02:20:15.312Z,8.02
2023-03-06T02:22:58.540Z,6.63
2023-03-06T02:25:41.232Z,8.05
2023-03-06T02:28:13.989Z,8.77
2023-03-06T02:30:42.520Z,8.68
2023-03-06T02:33:13.622Z,8.68
2023-03-06T02:35:44.201Z,8.85
2023-03-06T02:38:14.409Z,11.27
2023-03-06T02:43:11.442Z,10.90
2023-03-06T02:45:45.381Z,9.68
2023-03-06T02:48:13.419Z,11.50
2023-03-06T02:50:40.720Z,11.13
2023-03-06T02:53:09.300Z,7.95
2023-03-06T02:55:36.554Z,7.78
2023-03-06T02:58:03.770Z,9.68
2023-03-06T03:00:33.807Z,9.65
2023-03-06T03:03:03.498Z,11.48
2023-03-06T03:05:31.424Z,14.65
2023-03-06T03:08:05.012Z,10.05
2023-03-06T03:10:32.351Z,11.20
2023-03-06T03:12:59.334Z,9.55
2023-03-06T03:15:26.165Z,9.18
2023-03-06T03:17:53.137Z,10.85
2023-03-06T03:20:21.838Z,10.85
2023-03-06T03:22:53.992Z,15.88
2023-03-06T03:25:24.392Z,10.93
2023-03-06T03:27:53.009Z,10.98
2023-03-06T03:30:20.056Z,14.55
2023-03-06T03:32:46.769Z,12.23
2023-03-06T03:35:13.674Z,14.13
2023-03-06T03:37:41.192Z,16.65
2023-03-06T03:40:10.543Z,11.98
2023-03-06T03:42:38.472Z,9.88
2023-03-06T03:45:06.752Z,9.25
2023-03-06T03:47:33.481Z,13.38
2023-03-06T03:50:00.702Z,11.75
2023-03-06T03:52:27.529Z,10.63
2023-03-06T03:54:54.579Z,10.20
2023-03-06T03:57:21.412Z,8.55
2023-03-06T03:59:51.404Z,9.32
2023-03-06T04:02:40.580Z,11.25
2023-03-06T04:05:16.245Z,13.25
2023-03-06T04:07:43.709Z,12.20
2023-03-06T04:10:12.576Z,9.98
2023-03-06T04:12:39.701Z,10.18
2023-03-06T04:15:07.809Z,10.15
2023-03-06T04:17:35.601Z,7.90
2023-03-06T04:20:05.195Z,8.52
2023-03-06T04:22:32.885Z,8.10
2023-03-06T04:25:00.369Z,7.82
2023-03-06T04:27:27.362Z,7.20
2023-03-06T04:29:56.509Z,6.55
2023-03-06T04:32:24.172Z,6.78
2023-03-06T04:34:51.331Z,8.30
2023-03-06T04:37:23.301Z,7.13
2023-03-06T04:39:53.958Z,9.13
2023-03-06T04:42:20.887Z,7.15
2023-03-06T04:44:47.662Z,6.75
2023-03-06T04:47:14.458Z,18.02
2023-03-06T04:49:41.219Z,6.95
2023-03-06T04:52:08.355Z,5.93
2023-03-06T04:54:35.221Z,7.18
2023-03-06T04:57:02.096Z,6.05
2023-03-06T04:59:28.828Z,5.40
2023-03-06T05:01:55.819Z,6.40
2023-03-06T05:04:22.635Z,7.53
2023-03-06T05:06:49.625Z,6.88
2023-03-06T05:09:16.925Z,6.70
2023-03-06T05:11:43.587Z,5.85
2023-03-06T05:14:10.339Z,6.47
2023-03-06T05:16:37.064Z,6.38
2023-03-06T05:19:03.781Z,7.38
2023-03-06T05:21:30.577Z,6.93
2023-03-06T05:23:57.474Z,9.65
2023-03-06T05:26:24.212Z,8.43
2023-03-06T05:28:50.950Z,9.88
2023-03-06T05:31:17.713Z,9.55
2023-03-06T05:33:44.405Z,7.15
2023-03-06T05:36:11.700Z,8.20
2023-03-06T05:38:38.400Z,9.07
2023-03-06T05:41:05.485Z,6.88
2023-03-06T05:43:32.220Z,9.07
2023-03-06T05:46:06.168Z,8.60
2023-03-06T05:48:33.503Z,7.63
2023-03-06T05:51:01.376Z,7.22
2023-03-06T05:53:29.407Z,5.95
2023-03-06T05:56:04.046Z,6.88
2023-03-06T05:58:32.020Z,5.47
2023-03-06T06:00:58.897Z,7.43
2023-03-06T06:03:25.707Z,6.18
2023-03-06T06:05:52.677Z,6.78
2023-03-06T06:08:19.372Z,6.70
2023-03-06T06:10:46.047Z,5.70
2023-03-06T06:13:12.775Z,6.28
2023-03-06T06:15:39.516Z,6.78
2023-03-06T06:18:06.233Z,6.30
2023-03-06T06:20:33.198Z,4.32
2023-03-06T06:22:59.909Z,4.80
2023-03-06T06:25:26.644Z,6.90
2023-03-06T06:27:55.437Z,4.25
2023-03-06T06:30:22.885Z,3.72
2023-03-06T06:32:49.861Z,3.03
2023-03-06T06:35:16.645Z,3.75
2023-03-06T06:37:43.311Z,3.15
2023-03-06T06:40:10.638Z,3.97
2023-03-06T06:42:40.086Z,5.28
2023-03-06T06:45:09.093Z,4.13
2023-03-06T06:47:38.432Z,2.95
2023-03-06T06:50:05.795Z,4.75
2023-03-06T06:52:32.458Z,4.05
2023-03-06T06:54:59.118Z,7.72
2023-03-06T06:57:25.851Z,5.95
2023-03-06T06:59:54.063Z,3.67
2023-03-06T07:02:21.296Z,3.20
2023-03-06T07:05:02.448Z,3.33
2023-03-06T07:07:30.874Z,4.57
2023-03-06T07:09:57.703Z,3.80
2023-03-06T07:12:24.460Z,3.90
2023-03-06T07:14:51.147Z,5.30
2023-03-06T07:17:18.126Z,3.03
2023-03-06T07:19:44.838Z,3.83
2023-03-06T07:22:11.936Z,5.80
2023-03-06T07:24:38.660Z,4.63
2023-03-06T07:27:05.414Z,3.55
2023-03-06T07:29:34.116Z,3.92
2023-03-06T07:32:00.961Z,4.63
2023-03-06T07:34:27.805Z,6.53
2023-03-06T07:36:54.613Z,5.10
2023-03-06T07:39:21.406Z,4.75
2023-03-06T07:41:48.149Z,7.20
2023-03-06T07:44:14.916Z,7.20
2023-03-06T07:46:41.741Z,7.93
2023-03-06T07:49:08.563Z,5.60
2023-03-06T07:51:35.331Z,11.43
2023-03-06T07:54:02.259Z,28.08
2023-03-06T07:56:44.453Z,4.75
2023-03-06T07:59:14.265Z,4.88
2023-03-06T08:01:41.237Z,5.20
2023-03-06T08:04:13.694Z,6.15
2023-03-06T08:06:40.664Z,3.95
2023-03-06T08:09:10.189Z,5.28
2023-03-06T08:11:37.057Z,6.03
2023-03-06T08:14:06.196Z,5.32
2023-03-06T08:16:33.035Z,4.05
2023-03-06T08:18:59.910Z,5.65
2023-03-06T08:21:27.992Z,6.53
2023-03-06T08:23:55.360Z,5.88
2023-03-06T08:26:24.907Z,4.47
2023-03-06T08:28:53.385Z,4.78
2023-03-06T08:31:25.813Z,6.22
2023-03-06T08:33:53.182Z,7.00
2023-03-06T08:36:20.098Z,6.57
2023-03-06T08:38:49.136Z,7.18
2023-03-06T08:41:15.935Z,17.35
2023-03-06T08:43:42.942Z,11.80
2023-03-06T08:46:10.736Z,9.55
2023-03-06T08:48:37.946Z,9.85
2023-03-06T08:51:04.860Z,16.70
2023-03-06T08:53:42.659Z,7.88
2023-03-06T08:56:30.229Z,23.08
2023-03-06T08:59:00.073Z,23.50
2023-03-06T09:01:32.226Z,12.88
2023-03-06T09:04:01.631Z,12.60
2023-03-06T09:06:33.051Z,8.07
2023-03-06T09:09:00.263Z,8.93
2023-03-06T09:11:30.172Z,7.78
2023-03-06T09:13:58.533Z,21.38
2023-03-06T09:16:29.049Z,8.60
2023-03-06T09:19:09.798Z,12.15
2023-03-06T09:21:42.520Z,11.93
2023-03-06T09:24:11.164Z,7.75
2023-03-06T09:26:46.448Z,6.03
2023-03-06T09:29:25.478Z,6.97
2023-03-06T09:31:55.773Z,9.40
2023-03-06T09:34:46.516Z,8.90
2023-03-06T09:37:41.824Z,6.82
2023-03-06T09:40:31.367Z,7.22
2023-03-06T09:43:15.835Z,7.78
2023-03-06T09:45:48.309Z,10.35
2023-03-06T09:48:15.896Z,8.80
2023-03-06T09:50:50.215Z,8.60
2023-03-06T09:53:42.858Z,8.82
2023-03-06T09:56:21.973Z,12.60
2023-03-06T09:58:51.795Z,11.27
2023-03-06T10:01:28.601Z,11.63
2023-03-06T10:04:31.242Z,8.65
2023-03-06T10:07:04.927Z,10.80
2023-03-06T10:09:42.723Z,10.05
2023-03-06T10:12:19.529Z,8.32
2023-03-06T10:14:54.105Z,12.32
2023-03-06T10:17:22.899Z,8.07
2023-03-06T10:19:50.163Z,7.03
2023-03-06T10:25:38.750Z,7.40
2023-03-06T10:28:15.041Z,6.50
2023-03-06T10:30:51.751Z,6.05
2023-03-06T10:33:54.906Z,12.25
2023-03-06T10:36:27.401Z,5.35
2023-03-06T10:38:55.697Z,6.03
2023-03-06T10:41:28.420Z,5.60
2023-03-06T10:44:01.356Z,4.07
2023-03-06T10:46:31.727Z,5.05
2023-03-06T10:49:00.827Z,3.92
2023-03-06T10:51:29.077Z,6.05
2023-03-06T10:54:01.427Z,5.75
2023-03-06T10:56:31.407Z,6.18
2023-03-06T10:59:19.720Z,3.45
2023-03-06T11:01:48.783Z,2.80
2023-03-06T11:04:31.158Z,4.63
2023-03-06T11:07:15.619Z,5.78
2023-03-06T11:09:48.296Z,3.08
2023-03-06T11:12:21.399Z,11.65
2023-03-06T11:15:12.431Z,4.50
2023-03-06T11:24:57.990Z,17.33
2023-03-06T11:27:34.785Z,3.80
2023-03-06T11:30:16.981Z,3.75
2023-03-06T11:32:54.088Z,5.07
2023-03-06T11:35:27.382Z,4.30
2023-03-06T11:38:09.939Z,3.13
2023-03-06T11:40:37.667Z,5.50
2023-03-06T11:43:35.907Z,3.55
2023-03-06T11:46:19.145Z,2.25
2023-03-06T11:48:53.622Z,1.88
2023-03-06T11:51:28.175Z,5.53
2023-03-06T11:54:00.341Z,2.20
2023-03-06T11:57:24.373Z,5.95
2023-03-06T12:00:03.582Z,2.63
2023-03-06T12:02:57.446Z,5.13
2023-03-06T12:05:34.077Z,8.00
2023-03-06T12:08:49.093Z,3.30
2023-03-06T12:11:59.961Z,5.38
2023-03-06T12:14:53.644Z,4.85
2023-03-06T12:18:00.777Z,5.45
2023-03-06T12:23:44.798Z,5.60
2023-03-06T12:26:46.020Z,4.88
2023-03-06T12:29:40.391Z,2.88
2023-03-06T12:32:26.238Z,3.33
2023-03-06T12:34:59.216Z,6.57
2023-03-06T12:37:56.978Z,4.05
2023-03-06T12:40:35.906Z,2.40
2023-03-06T12:43:33.745Z,3.50
2023-03-06T12:46:24.306Z,7.40
2023-03-06T12:49:11.156Z,1.98
2023-03-06T12:51:40.069Z,2.08
2023-03-06T12:54:07.523Z,2.35
2023-03-06T12:56:44.145Z,7.72
2023-03-06T12:59:50.586Z,2.30
2023-03-06T13:02:56.229Z,13.48
2023-03-06T13:05:38.662Z,3.08
2023-03-06T13:08:15.735Z,5.25
2023-03-06T13:11:40.887Z,5.07
2023-03-06T13:14:26.305Z,2.60
2023-03-06T13:16:53.457Z,10.55
2023-03-06T13:19:22.562Z,9.77
2023-03-06T13:21:55.347Z,3.20
2023-03-06T13:24:34.363Z,5.63
2023-03-06T13:27:11.388Z,4.22
2023-03-06T13:29:38.152Z,4.50
2023-03-06T13:32:16.683Z,4.63
2023-03-06T13:34:47.061Z,6.10
2023-03-06T13:37:13.834Z,4.90
2023-03-06T13:40:10.106Z,2.00
2023-03-06T13:42:57.744Z,4.88
2023-03-06T13:45:30.709Z,4.72
2023-03-06T13:48:24.568Z,6.13
2023-03-06T13:50:49.172Z,6.00
2023-03-06T13:53:51.681Z,4.13
2023-03-06T13:56:54.206Z,3.05
2023-03-06T13:59:35.817Z,3.03
2023-03-06T14:02:28.112Z,7.38
2023-03-06T14:04:56.851Z,7.55
2023-03-06T14:07:28.668Z,6.50
2023-03-06T14:10:21.985Z,2.60
2023-03-06T14:12:48.827Z,3.80
2023-03-06T14:15:22.833Z,3.20
2023-03-06T14:17:57.495Z,3.92
2023-03-06T14:20:33.943Z,2.85
2023-03-06T14:23:21.053Z,10.13
2023-03-06T14:25:53.043Z,3.25
2023-03-06T14:28:25.933Z,3.58
2023-03-06T14:30:53.992Z,5.43
2023-03-06T14:33:43.402Z,2.80
2023-03-06T14:36:16.810Z,14.27
2023-03-06T14:38:56.132Z,7.03
2023-03-06T14:41:31.466Z,13.40
2023-03-06T14:44:27.965Z,7.25
2023-03-06T14:46:56.640Z,8.40
2023-03-06T14:49:25.796Z,5.20
2023-03-06T14:51:55.392Z,12.48
2023-03-06T14:54:26.878Z,37.05
2023-03-06T14:56:56.854Z,22.10
2023-03-06T14:59:26.822Z,11.20
2023-03-06T15:02:04.830Z,6.15
2023-03-06T15:04:36.952Z,2.38
2023-03-06T15:07:13.590Z,6.78
2023-03-06T15:09:45.293Z,10.93
2023-03-06T15:12:21.427Z,4.72
2023-03-06T15:15:03.743Z,1.75
2023-03-06T15:17:37.895Z,6.85
2023-03-06T15:20:09.727Z,2.13
2023-03-06T15:22:38.741Z,5.60
2023-03-06T15:25:21.224Z,4.43
2023-03-06T15:27:50.560Z,6.15
2023-03-06T15:30:29.850Z,5.90
2023-03-06T15:33:29.275Z,3.97
2023-03-06T15:36:04.392Z,2.83
2023-03-06T15:38:34.349Z,4.13
2023-03-06T15:41:03.531Z,2.23
2023-03-06T15:43:36.469Z,2.75
2023-03-06T15:46:05.319Z,2.67
2023-03-06T15:48:34.067Z,5.32
2023-03-06T15:51:01.728Z,5.97
2023-03-06T15:53:28.696Z,2.78
2023-03-06T15:55:57.225Z,5.28
2023-03-06T15:58:26.887Z,2.72
2023-03-06T16:00:53.815Z,3.03
2023-03-06T16:03:20.591Z,4.10
2023-03-06T16:05:47.464Z,5.97
2023-03-06T16:08:15.095Z,2.22
2023-03-06T16:10:43.132Z,2.30
2023-03-06T16:13:17.616Z,7.18
2023-03-06T16:15:47.475Z,6.18
2023-03-06T16:18:14.511Z,4.47
2023-03-06T16:20:41.901Z,10.13
2023-03-06T16:23:10.726Z,19.27
2023-03-06T16:25:42.367Z,6.03
2023-03-06T16:28:16.580Z,9.00
2023-03-06T16:30:44.927Z,5.80
2023-03-06T16:33:12.746Z,4.32
2023-03-06T16:35:40.227Z,14.40
2023-03-06T16:38:07.004Z,5.30
2023-03-06T16:40:37.839Z,13.23
2023-03-06T16:45:35.643Z,15.13
2023-03-06T16:48:02.512Z,10.55
2023-03-06T16:50:34.119Z,19.30
2023-03-06T16:53:00.865Z,6.38
2023-03-06T16:55:28.031Z,2.42
2023-03-06T16:57:54.952Z,4.22
2023-03-06T17:00:24.698Z,2.38
2023-03-06T17:02:52.460Z,4.47
2023-03-06T17:05:19.800Z,6.97
2023-03-06T17:07:46.945Z,99.07
2023-03-06T17:10:16.780Z,9.20
2023-03-06T17:12:43.908Z,8.10
2023-03-06T17:15:11.319Z,4.80
2023-03-06T17:17:38.103Z,5.82
2023-03-06T17:20:11.953Z,7.30
2023-03-06T17:22:38.946Z,9.05
2023-03-06T17:25:07.027Z,7.07
2023-03-06T17:27:34.708Z,7.38
2023-03-06T17:30:01.749Z,7.57
2023-03-06T17:32:28.659Z,9.63
2023-03-06T17:34:56.476Z,7.45
2023-03-06T17:37:23.242Z,8.50
2023-03-06T17:39:50.039Z,8.18
2023-03-06T17:42:17.044Z,8.65
2023-03-06T17:44:43.720Z,11.70
2023-03-06T17:47:10.634Z,10.45
2023-03-06T17:49:37.486Z,11.55
2023-03-06T17:52:06.657Z,12.05
2023-03-06T17:54:37.048Z,13.30
2023-03-06T17:57:05.724Z,12.27
2023-03-06T17:59:35.918Z,7.57
2023-03-06T18:02:02.802Z,4.72
2023-03-06T18:04:29.928Z,15.48
2023-03-06T18:06:58.401Z,13.10
2023-03-06T18:09:25.134Z,37.25
2023-03-06T18:11:51.842Z,154.13
2023-03-06T18:14:18.716Z,358.42
2023-03-06T18:16:45.434Z,284.50
2023-03-06T18:19:12.748Z,163.20
2023-03-06T18:21:39.983Z,243.20
2023-03-06T18:24:07.573Z,345.35
2023-03-06T18:26:34.314Z,104.32
2023-03-06T18:29:04.579Z,51.22
2023-03-06T18:31:39.513Z,36.15
2023-03-06T18:34:08.754Z,45.35
2023-03-06T18:36:35.880Z,40.03
2023-03-06T18:39:03.999Z,20.73
2023-03-06T18:41:31.399Z,18.65
2023-03-06T18:44:02.519Z,21.98
2023-03-06T18:46:34.565Z,24.35
2023-03-06T18:49:01.741Z,31.27
2023-03-06T18:51:29.314Z,49.30
2023-03-06T18:53:58.222Z,34.03
2023-03-06T18:56:25.302Z,27.75
2023-03-06T18:58:52.330Z,28.13
2023-03-06T19:01:19.400Z,30.50
2023-03-06T19:03:46.753Z,25.58
2023-03-06T19:06:15.361Z,23.90
2023-03-06T19:08:42.256Z,22.63
2023-03-06T19:11:14.809Z,17.63
2023-03-06T19:13:42.061Z,15.13
2023-03-06T19:16:09.382Z,16.80
2023-03-06T19:18:36.215Z,12.68
2023-03-06T19:21:10.771Z,15.02
2023-03-06T19:23:38.132Z,15.98
2023-03-06T19:26:05.302Z,14.98
2023-03-06T19:28:32.060Z,14.02
2023-03-06T19:30:58.797Z,20.88
2023-03-06T19:33:25.977Z,15.93
2023-03-06T19:35:53.239Z,19.08
2023-03-06T19:38:20.004Z,18.08
2023-03-06T19:40:50.682Z,17.75
2023-03-06T19:45:44.618Z,20.95
2023-03-06T19:48:12.645Z,21.50
2023-03-06T19:50:40.485Z,21.88
2023-03-06T19:53:07.933Z,23.88
2023-03-06T19:55:38.034Z,19.30
2023-03-06T19:58:04.962Z,15.32
2023-03-06T20:00:31.921Z,17.63
2023-03-06T20:02:58.707Z,18.23
2023-03-06T20:05:25.422Z,16.23
2023-03-06T20:07:52.399Z,13.13
2023-03-06T20:10:19.351Z,14.63
2023-03-06T20:12:46.100Z,14.93
2023-03-06T20:15:13.215Z,17.90
2023-03-06T20:17:40.901Z,15.20
2023-03-06T20:20:10.799Z,15.43
2023-03-06T20:22:37.811Z,24.63
2023-03-06T20:25:05.023Z,19.67
2023-03-06T20:27:31.906Z,14.30
2023-03-06T20:29:58.624Z,14.43
2023-03-06T20:32:25.585Z,14.52
2023-03-06T20:34:52.353Z,13.88
2023-03-06T20:37:19.259Z,14.20
2023-03-06T20:39:46.790Z,11.82
2023-03-06T20:42:13.548Z,15.23
2023-03-06T20:44:40.239Z,13.15
2023-03-06T20:47:07.731Z,19.13
2023-03-06T20:49:34.458Z,21.65
2023-03-06T20:52:01.184Z,22.05
2023-03-06T20:54:27.901Z,19.63
2023-03-06T20:56:54.654Z,18.95
2023-03-06T20:59:21.639Z,18.50
2023-03-06T21:01:48.404Z,17.45
2023-03-06T21:04:15.513Z,15.35
2023-03-06T21:06:46.504Z,24.20
2023-03-06T21:09:17.502Z,18.98
2023-03-06T21:14:13.295Z,14.98
2023-03-06T21:16:40.623Z,14.05
2023-03-06T21:19:07.410Z,20.05
2023-03-06T21:21:35.102Z,17.35
2023-03-06T21:24:02.606Z,24.23
2023-03-06T21:26:31.519Z,25.25
2023-03-06T21:28:59.078Z,14.07
2023-03-06T21:31:26.332Z,20.05
2023-03-06T21:33:53.176Z,15.00
2023-03-06T21:36:24.823Z,18.83
2023-03-06T21:38:52.527Z,21.38
2023-03-06T21:41:27.866Z,15.50
2023-03-06T21:44:03.481Z,16.92
2023-03-06T21:46:30.704Z,16.20
2023-03-06T21:48:57.717Z,13.23
2023-03-06T21:51:25.907Z,18.48
2023-03-06T21:53:53.086Z,16.10
2023-03-06T21:56:22.187Z,15.27
2023-03-06T21:58:48.887Z,13.27
2023-03-06T22:01:21.821Z,13.15
2023-03-06T22:03:48.816Z,27.15
2023-03-06T22:06:26.254Z,16.98
2023-03-06T22:08:55.135Z,14.82
2023-03-06T22:11:23.414Z,18.00
2023-03-06T22:13:50.623Z,16.48
2023-03-06T22:16:18.460Z,16.90
2023-03-06T22:18:46.600Z,18.00
2023-03-06T22:21:15.130Z,19.95
2023-03-06T22:23:42.246Z,16.75
2023-03-06T22:26:12.443Z,19.60
2023-03-06T22:28:39.942Z,15.10
2023-03-06T22:31:12.231Z,19.73
2023-03-06T22:33:39.323Z,92.65
2023-03-06T22:36:11.481Z,31.77
2023-03-06T22:38:40.798Z,19.10
2023-03-06T22:41:08.450Z,18.88
2023-03-06T22:43:35.644Z,18.15
2023-03-06T22:46:04.192Z,17.38
2023-03-06T22:48:31.233Z,22.13
2023-03-06T22:51:05.005Z,19.63
2023-03-06T22:53:32.749Z,19.27
2023-03-06T22:56:00.353Z,24.90
2023-03-06T22:58:28.526Z,20.05
2023-03-06T23:00:55.235Z,24.63
2023-03-06T23:03:21.934Z,17.00
2023-03-06T23:05:48.710Z,16.55
2023-03-06T23:08:15.337Z,15.15
2023-03-06T23:10:42.010Z,17.85
2023-03-06T23:13:27.432Z,17.73
2023-03-06T23:16:13.098Z,14.85
2023-03-06T23:18:58.422Z,16.20
2023-03-06T23:21:43.727Z,13.88
2023-03-06T23:24:29.108Z,13.95
2023-03-06T23:26:55.847Z,15.82
2023-03-06T23:29:22.675Z,13.20
2023-03-06T23:31:49.383Z,15.07
2023-03-06T23:34:16.052Z,10.60
2023-03-06T23:36:42.717Z,12.75
2023-03-06T23:39:09.795Z,17.67
2023-03-06T23:41:36.646Z,14.02
2023-03-06T23:44:03.421Z,14.73
2023-03-06T23:46:30.169Z,13.65
2023-03-06T23:48:56.899Z,11.90
2023-03-06T23:51:23.970Z,13.80
2023-03-06T23:53:58.784Z,11.80
2023-03-06T23:56:27.365Z,13.65
2023-03-06T23:58:54.300Z,11.93
